<?xml version="1.0" encoding="UTF-8" standalone="no" ?>
<gpx xmlns="http://www.topografix.com/GPX/1/1" xmlns:xsi="http://www.w3.org/2001/XMLSchema-instance" xsi:schemaLocation="http://www.topografix.com/GPX/1/1 http://www.topografix.com/GPX/1/1/gpx.xsd" version="1.1" creator="VisuGPX - https://www.visugpx.com">
  <metadata>
    <name>Meslay</name>
  </metadata>
  <trk>
    <name><![CDATA[01-AVR-21: 01 AVR 2021 13:29]]></name>
    <trkseg>
      <trkpt lat="48.9604" lon="-0.38785">
        <ele>124.63</ele>
        <time>2021-04-01T11:29:18Z</time>
      </trkpt>
      <trkpt lat="48.96023" lon="-0.38761">
        <ele>126.07</ele>
        <time>2021-04-01T11:29:37Z</time>
      </trkpt>
      <trkpt lat="48.96012" lon="-0.38742">
        <ele>125.59</ele>
        <time>2021-04-01T11:29:51Z</time>
      </trkpt>
      <trkpt lat="48.96004" lon="-0.38718">
        <ele>127.03</ele>
        <time>2021-04-01T11:30:04Z</time>
      </trkpt>
      <trkpt lat="48.95991" lon="-0.38708">
        <ele>128.47</ele>
        <time>2021-04-01T11:30:18Z</time>
      </trkpt>
      <trkpt lat="48.95978" lon="-0.38708">
        <ele>130.4</ele>
        <time>2021-04-01T11:30:35Z</time>
      </trkpt>
      <trkpt lat="48.95974" lon="-0.38695">
        <ele>130.88</ele>
        <time>2021-04-01T11:30:43Z</time>
      </trkpt>
      <trkpt lat="48.95969" lon="-0.38662">
        <ele>134.24</ele>
        <time>2021-04-01T11:31:02Z</time>
      </trkpt>
      <trkpt lat="48.95967" lon="-0.38643">
        <ele>136.64</ele>
        <time>2021-04-01T11:31:19Z</time>
      </trkpt>
      <trkpt lat="48.95967" lon="-0.38641">
        <ele>136.64</ele>
        <time>2021-04-01T11:31:21Z</time>
      </trkpt>
      <trkpt lat="48.95967" lon="-0.38637">
        <ele>136.64</ele>
        <time>2021-04-01T11:31:23Z</time>
      </trkpt>
      <trkpt lat="48.95967" lon="-0.38613">
        <ele>139.05</ele>
        <time>2021-04-01T11:31:38Z</time>
      </trkpt>
      <trkpt lat="48.95976" lon="-0.386">
        <ele>140.97</ele>
        <time>2021-04-01T11:31:56Z</time>
      </trkpt>
      <trkpt lat="48.95991" lon="-0.38594">
        <ele>141.93</ele>
        <time>2021-04-01T11:32:15Z</time>
      </trkpt>
      <trkpt lat="48.9601" lon="-0.38572">
        <ele>142.89</ele>
        <time>2021-04-01T11:32:35Z</time>
      </trkpt>
      <trkpt lat="48.96027" lon="-0.38551">
        <ele>143.37</ele>
        <time>2021-04-01T11:32:54Z</time>
      </trkpt>
      <trkpt lat="48.96047" lon="-0.38525">
        <ele>144.34</ele>
        <time>2021-04-01T11:33:16Z</time>
      </trkpt>
      <trkpt lat="48.96064" lon="-0.38493">
        <ele>144.82</ele>
        <time>2021-04-01T11:33:36Z</time>
      </trkpt>
      <trkpt lat="48.96076" lon="-0.38463">
        <ele>144.82</ele>
        <time>2021-04-01T11:33:56Z</time>
      </trkpt>
      <trkpt lat="48.96087" lon="-0.38433">
        <ele>144.82</ele>
        <time>2021-04-01T11:34:14Z</time>
      </trkpt>
      <trkpt lat="48.96102" lon="-0.38401">
        <ele>144.82</ele>
        <time>2021-04-01T11:34:35Z</time>
      </trkpt>
      <trkpt lat="48.96115" lon="-0.38368">
        <ele>145.3</ele>
        <time>2021-04-01T11:34:53Z</time>
      </trkpt>
      <trkpt lat="48.96122" lon="-0.38338">
        <ele>145.3</ele>
        <time>2021-04-01T11:35:09Z</time>
      </trkpt>
      <trkpt lat="48.96117" lon="-0.38302">
        <ele>145.3</ele>
        <time>2021-04-01T11:35:27Z</time>
      </trkpt>
      <trkpt lat="48.9613" lon="-0.38281">
        <ele>143.85</ele>
        <time>2021-04-01T11:35:45Z</time>
      </trkpt>
      <trkpt lat="48.96149" lon="-0.38259">
        <ele>142.41</ele>
        <time>2021-04-01T11:36:04Z</time>
      </trkpt>
      <trkpt lat="48.96169" lon="-0.38233">
        <ele>140.97</ele>
        <time>2021-04-01T11:36:23Z</time>
      </trkpt>
      <trkpt lat="48.96184" lon="-0.38205">
        <ele>141.93</ele>
        <time>2021-04-01T11:36:42Z</time>
      </trkpt>
      <trkpt lat="48.96197" lon="-0.3819">
        <ele>143.85</ele>
        <time>2021-04-01T11:36:58Z</time>
      </trkpt>
      <trkpt lat="48.96218" lon="-0.38177">
        <ele>144.34</ele>
        <time>2021-04-01T11:37:18Z</time>
      </trkpt>
      <trkpt lat="48.96244" lon="-0.38167">
        <ele>144.82</ele>
        <time>2021-04-01T11:37:40Z</time>
      </trkpt>
      <trkpt lat="48.96267" lon="-0.38158">
        <ele>144.82</ele>
        <time>2021-04-01T11:37:58Z</time>
      </trkpt>
      <trkpt lat="48.96285" lon="-0.38156">
        <ele>145.3</ele>
        <time>2021-04-01T11:38:14Z</time>
      </trkpt>
      <trkpt lat="48.96304" lon="-0.38152">
        <ele>145.3</ele>
        <time>2021-04-01T11:38:31Z</time>
      </trkpt>
      <trkpt lat="48.96328" lon="-0.38143">
        <ele>144.82</ele>
        <time>2021-04-01T11:38:50Z</time>
      </trkpt>
      <trkpt lat="48.96355" lon="-0.38124">
        <ele>144.82</ele>
        <time>2021-04-01T11:39:13Z</time>
      </trkpt>
      <trkpt lat="48.96364" lon="-0.38117">
        <ele>144.82</ele>
        <time>2021-04-01T11:39:21Z</time>
      </trkpt>
      <trkpt lat="48.9639" lon="-0.38111">
        <ele>143.37</ele>
        <time>2021-04-01T11:39:42Z</time>
      </trkpt>
      <trkpt lat="48.96405" lon="-0.38111">
        <ele>141.93</ele>
        <time>2021-04-01T11:39:57Z</time>
      </trkpt>
      <trkpt lat="48.96426" lon="-0.38107">
        <ele>140.49</ele>
        <time>2021-04-01T11:40:14Z</time>
      </trkpt>
      <trkpt lat="48.9645" lon="-0.38102">
        <ele>139.53</ele>
        <time>2021-04-01T11:40:32Z</time>
      </trkpt>
      <trkpt lat="48.96471" lon="-0.38098">
        <ele>138.09</ele>
        <time>2021-04-01T11:40:49Z</time>
      </trkpt>
      <trkpt lat="48.96495" lon="-0.38085">
        <ele>137.13</ele>
        <time>2021-04-01T11:41:10Z</time>
      </trkpt>
      <trkpt lat="48.96512" lon="-0.38064">
        <ele>136.16</ele>
        <time>2021-04-01T11:41:26Z</time>
      </trkpt>
      <trkpt lat="48.96529" lon="-0.38047">
        <ele>135.2</ele>
        <time>2021-04-01T11:41:44Z</time>
      </trkpt>
      <trkpt lat="48.96546" lon="-0.38029">
        <ele>134.72</ele>
        <time>2021-04-01T11:42:00Z</time>
      </trkpt>
      <trkpt lat="48.96566" lon="-0.38004">
        <ele>134.72</ele>
        <time>2021-04-01T11:42:21Z</time>
      </trkpt>
      <trkpt lat="48.96587" lon="-0.37984">
        <ele>133.28</ele>
        <time>2021-04-01T11:42:40Z</time>
      </trkpt>
      <trkpt lat="48.96594" lon="-0.3798">
        <ele>132.32</ele>
        <time>2021-04-01T11:42:49Z</time>
      </trkpt>
      <trkpt lat="48.96607" lon="-0.37978">
        <ele>129.92</ele>
        <time>2021-04-01T11:43:07Z</time>
      </trkpt>
      <trkpt lat="48.96626" lon="-0.37987">
        <ele>127.03</ele>
        <time>2021-04-01T11:43:26Z</time>
      </trkpt>
      <trkpt lat="48.96645" lon="-0.38004">
        <ele>125.11</ele>
        <time>2021-04-01T11:43:47Z</time>
      </trkpt>
      <trkpt lat="48.96649" lon="-0.38027">
        <ele>123.19</ele>
        <time>2021-04-01T11:44:09Z</time>
      </trkpt>
      <trkpt lat="48.96656" lon="-0.38045">
        <ele>122.22</ele>
        <time>2021-04-01T11:44:31Z</time>
      </trkpt>
      <trkpt lat="48.96667" lon="-0.38059">
        <ele>123.67</ele>
        <time>2021-04-01T11:44:52Z</time>
      </trkpt>
      <trkpt lat="48.96677" lon="-0.3807">
        <ele>125.59</ele>
        <time>2021-04-01T11:45:16Z</time>
      </trkpt>
      <trkpt lat="48.96699" lon="-0.38092">
        <ele>128.47</ele>
        <time>2021-04-01T11:45:40Z</time>
      </trkpt>
      <trkpt lat="48.96718" lon="-0.38107">
        <ele>130.88</ele>
        <time>2021-04-01T11:46:05Z</time>
      </trkpt>
      <trkpt lat="48.96744" lon="-0.38132">
        <ele>133.76</ele>
        <time>2021-04-01T11:46:33Z</time>
      </trkpt>
      <trkpt lat="48.96765" lon="-0.38154">
        <ele>135.2</ele>
        <time>2021-04-01T11:46:58Z</time>
      </trkpt>
      <trkpt lat="48.96785" lon="-0.38171">
        <ele>136.64</ele>
        <time>2021-04-01T11:47:19Z</time>
      </trkpt>
      <trkpt lat="48.96802" lon="-0.38188">
        <ele>137.61</ele>
        <time>2021-04-01T11:47:37Z</time>
      </trkpt>
      <trkpt lat="48.96815" lon="-0.38184">
        <ele>137.13</ele>
        <time>2021-04-01T11:47:51Z</time>
      </trkpt>
      <trkpt lat="48.96823" lon="-0.38173">
        <ele>137.13</ele>
        <time>2021-04-01T11:47:59Z</time>
      </trkpt>
      <trkpt lat="48.9684" lon="-0.38145">
        <ele>137.13</ele>
        <time>2021-04-01T11:48:24Z</time>
      </trkpt>
      <trkpt lat="48.96847" lon="-0.38137">
        <ele>137.13</ele>
        <time>2021-04-01T11:48:49Z</time>
      </trkpt>
      <trkpt lat="48.96873" lon="-0.38102">
        <ele>137.61</ele>
        <time>2021-04-01T11:49:17Z</time>
      </trkpt>
      <trkpt lat="48.9689" lon="-0.38081">
        <ele>137.61</ele>
        <time>2021-04-01T11:49:38Z</time>
      </trkpt>
      <trkpt lat="48.96905" lon="-0.38053">
        <ele>137.61</ele>
        <time>2021-04-01T11:50:03Z</time>
      </trkpt>
      <trkpt lat="48.96924" lon="-0.38021">
        <ele>138.09</ele>
        <time>2021-04-01T11:50:28Z</time>
      </trkpt>
      <trkpt lat="48.96933" lon="-0.38002">
        <ele>137.61</ele>
        <time>2021-04-01T11:50:41Z</time>
      </trkpt>
      <trkpt lat="48.9695" lon="-0.37987">
        <ele>137.13</ele>
        <time>2021-04-01T11:50:58Z</time>
      </trkpt>
      <trkpt lat="48.9695" lon="-0.37987">
        <ele>137.13</ele>
        <time>2021-04-01T11:50:59Z</time>
      </trkpt>
      <trkpt lat="48.96971" lon="-0.37969">
        <ele>137.13</ele>
        <time>2021-04-01T11:51:18Z</time>
      </trkpt>
      <trkpt lat="48.96988" lon="-0.37963">
        <ele>137.61</ele>
        <time>2021-04-01T11:51:34Z</time>
      </trkpt>
      <trkpt lat="48.97008" lon="-0.37959">
        <ele>137.13</ele>
        <time>2021-04-01T11:51:52Z</time>
      </trkpt>
      <trkpt lat="48.97029" lon="-0.3795">
        <ele>137.61</ele>
        <time>2021-04-01T11:52:07Z</time>
      </trkpt>
      <trkpt lat="48.97046" lon="-0.37941">
        <ele>137.61</ele>
        <time>2021-04-01T11:52:23Z</time>
      </trkpt>
      <trkpt lat="48.97068" lon="-0.37933">
        <ele>138.09</ele>
        <time>2021-04-01T11:52:40Z</time>
      </trkpt>
      <trkpt lat="48.97072" lon="-0.37933">
        <ele>137.61</ele>
        <time>2021-04-01T11:52:44Z</time>
      </trkpt>
      <trkpt lat="48.97091" lon="-0.37933">
        <ele>137.13</ele>
        <time>2021-04-01T11:53:03Z</time>
      </trkpt>
      <trkpt lat="48.97104" lon="-0.37933">
        <ele>136.64</ele>
        <time>2021-04-01T11:53:13Z</time>
      </trkpt>
      <trkpt lat="48.97113" lon="-0.37926">
        <ele>137.13</ele>
        <time>2021-04-01T11:53:21Z</time>
      </trkpt>
      <trkpt lat="48.97126" lon="-0.37907">
        <ele>136.64</ele>
        <time>2021-04-01T11:53:33Z</time>
      </trkpt>
      <trkpt lat="48.97137" lon="-0.37873">
        <ele>136.16</ele>
        <time>2021-04-01T11:53:53Z</time>
      </trkpt>
      <trkpt lat="48.97141" lon="-0.37839">
        <ele>135.2</ele>
        <time>2021-04-01T11:54:11Z</time>
      </trkpt>
      <trkpt lat="48.97156" lon="-0.378">
        <ele>134.24</ele>
        <time>2021-04-01T11:54:32Z</time>
      </trkpt>
      <trkpt lat="48.97166" lon="-0.37766">
        <ele>133.76</ele>
        <time>2021-04-01T11:54:51Z</time>
      </trkpt>
      <trkpt lat="48.97177" lon="-0.37731">
        <ele>133.28</ele>
        <time>2021-04-01T11:55:10Z</time>
      </trkpt>
      <trkpt lat="48.97194" lon="-0.37697">
        <ele>132.32</ele>
        <time>2021-04-01T11:55:34Z</time>
      </trkpt>
      <trkpt lat="48.97201" lon="-0.37684">
        <ele>131.84</ele>
        <time>2021-04-01T11:55:43Z</time>
      </trkpt>
      <trkpt lat="48.97218" lon="-0.37662">
        <ele>130.88</ele>
        <time>2021-04-01T11:56:05Z</time>
      </trkpt>
      <trkpt lat="48.97235" lon="-0.37654">
        <ele>130.4</ele>
        <time>2021-04-01T11:56:20Z</time>
      </trkpt>
      <trkpt lat="48.97235" lon="-0.37635">
        <ele>130.4</ele>
        <time>2021-04-01T11:56:33Z</time>
      </trkpt>
      <trkpt lat="48.97231" lon="-0.376">
        <ele>131.36</ele>
        <time>2021-04-01T11:56:56Z</time>
      </trkpt>
      <trkpt lat="48.97225" lon="-0.37577">
        <ele>131.36</ele>
        <time>2021-04-01T11:57:17Z</time>
      </trkpt>
      <trkpt lat="48.9722" lon="-0.37555">
        <ele>130.4</ele>
        <time>2021-04-01T11:57:30Z</time>
      </trkpt>
      <trkpt lat="48.97214" lon="-0.37523">
        <ele>129.92</ele>
        <time>2021-04-01T11:57:48Z</time>
      </trkpt>
      <trkpt lat="48.97212" lon="-0.37519">
        <ele>129.92</ele>
        <time>2021-04-01T11:57:51Z</time>
      </trkpt>
      <trkpt lat="48.97199" lon="-0.37489">
        <ele>128.95</ele>
        <time>2021-04-01T11:58:09Z</time>
      </trkpt>
      <trkpt lat="48.97188" lon="-0.37461">
        <ele>127.51</ele>
        <time>2021-04-01T11:58:25Z</time>
      </trkpt>
      <trkpt lat="48.97182" lon="-0.37433">
        <ele>126.07</ele>
        <time>2021-04-01T11:58:42Z</time>
      </trkpt>
      <trkpt lat="48.97171" lon="-0.37403">
        <ele>125.11</ele>
        <time>2021-04-01T11:59:01Z</time>
      </trkpt>
      <trkpt lat="48.97162" lon="-0.37384">
        <ele>125.11</ele>
        <time>2021-04-01T11:59:21Z</time>
      </trkpt>
      <trkpt lat="48.97152" lon="-0.37356">
        <ele>125.59</ele>
        <time>2021-04-01T11:59:40Z</time>
      </trkpt>
      <trkpt lat="48.97141" lon="-0.37336">
        <ele>126.07</ele>
        <time>2021-04-01T11:59:55Z</time>
      </trkpt>
      <trkpt lat="48.97147" lon="-0.37313">
        <ele>127.51</ele>
        <time>2021-04-01T12:00:11Z</time>
      </trkpt>
      <trkpt lat="48.97141" lon="-0.37291">
        <ele>128.47</ele>
        <time>2021-04-01T12:00:26Z</time>
      </trkpt>
      <trkpt lat="48.97128" lon="-0.37259">
        <ele>131.84</ele>
        <time>2021-04-01T12:00:47Z</time>
      </trkpt>
      <trkpt lat="48.97113" lon="-0.37231">
        <ele>134.72</ele>
        <time>2021-04-01T12:01:10Z</time>
      </trkpt>
      <trkpt lat="48.97096" lon="-0.37203">
        <ele>136.64</ele>
        <time>2021-04-01T12:01:32Z</time>
      </trkpt>
      <trkpt lat="48.97076" lon="-0.37186">
        <ele>137.13</ele>
        <time>2021-04-01T12:01:51Z</time>
      </trkpt>
      <trkpt lat="48.97061" lon="-0.37171">
        <ele>136.64</ele>
        <time>2021-04-01T12:02:08Z</time>
      </trkpt>
      <trkpt lat="48.97057" lon="-0.37147">
        <ele>135.68</ele>
        <time>2021-04-01T12:02:24Z</time>
      </trkpt>
      <trkpt lat="48.97057" lon="-0.37117">
        <ele>133.76</ele>
        <time>2021-04-01T12:02:41Z</time>
      </trkpt>
      <trkpt lat="48.97055" lon="-0.371">
        <ele>133.76</ele>
        <time>2021-04-01T12:02:50Z</time>
      </trkpt>
      <trkpt lat="48.97038" lon="-0.37085">
        <ele>133.28</ele>
        <time>2021-04-01T12:03:08Z</time>
      </trkpt>
      <trkpt lat="48.97012" lon="-0.37077">
        <ele>134.72</ele>
        <time>2021-04-01T12:03:28Z</time>
      </trkpt>
      <trkpt lat="48.97003" lon="-0.37079">
        <ele>135.68</ele>
        <time>2021-04-01T12:03:41Z</time>
      </trkpt>
      <trkpt lat="48.96995" lon="-0.37092">
        <ele>135.68</ele>
        <time>2021-04-01T12:03:50Z</time>
      </trkpt>
      <trkpt lat="48.96986" lon="-0.371">
        <ele>136.16</ele>
        <time>2021-04-01T12:03:58Z</time>
      </trkpt>
      <trkpt lat="48.96982" lon="-0.37115">
        <ele>136.64</ele>
        <time>2021-04-01T12:04:10Z</time>
      </trkpt>
      <trkpt lat="48.96982" lon="-0.37147">
        <ele>139.05</ele>
        <time>2021-04-01T12:04:29Z</time>
      </trkpt>
      <trkpt lat="48.96982" lon="-0.3715">
        <ele>139.05</ele>
        <time>2021-04-01T12:04:32Z</time>
      </trkpt>
      <trkpt lat="48.96973" lon="-0.37167">
        <ele>140.97</ele>
        <time>2021-04-01T12:04:48Z</time>
      </trkpt>
      <trkpt lat="48.96973" lon="-0.3719">
        <ele>142.41</ele>
        <time>2021-04-01T12:05:07Z</time>
      </trkpt>
      <trkpt lat="48.96969" lon="-0.37221">
        <ele>143.85</ele>
        <time>2021-04-01T12:05:26Z</time>
      </trkpt>
      <trkpt lat="48.96963" lon="-0.37251">
        <ele>144.82</ele>
        <time>2021-04-01T12:05:44Z</time>
      </trkpt>
      <trkpt lat="48.96956" lon="-0.37281">
        <ele>146.26</ele>
        <time>2021-04-01T12:06:02Z</time>
      </trkpt>
      <trkpt lat="48.9695" lon="-0.37298">
        <ele>146.26</ele>
        <time>2021-04-01T12:06:14Z</time>
      </trkpt>
      <trkpt lat="48.96933" lon="-0.37317">
        <ele>147.22</ele>
        <time>2021-04-01T12:06:35Z</time>
      </trkpt>
      <trkpt lat="48.96911" lon="-0.3733">
        <ele>148.66</ele>
        <time>2021-04-01T12:07:02Z</time>
      </trkpt>
      <trkpt lat="48.96881" lon="-0.37349">
        <ele>149.14</ele>
        <time>2021-04-01T12:07:26Z</time>
      </trkpt>
      <trkpt lat="48.96853" lon="-0.3736">
        <ele>150.58</ele>
        <time>2021-04-01T12:07:52Z</time>
      </trkpt>
      <trkpt lat="48.9684" lon="-0.37373">
        <ele>151.54</ele>
        <time>2021-04-01T12:08:14Z</time>
      </trkpt>
      <trkpt lat="48.96825" lon="-0.37381">
        <ele>152.03</ele>
        <time>2021-04-01T12:08:30Z</time>
      </trkpt>
      <trkpt lat="48.96795" lon="-0.37401">
        <ele>153.95</ele>
        <time>2021-04-01T12:08:58Z</time>
      </trkpt>
      <trkpt lat="48.9677" lon="-0.37416">
        <ele>155.39</ele>
        <time>2021-04-01T12:09:26Z</time>
      </trkpt>
      <trkpt lat="48.96748" lon="-0.37426">
        <ele>155.87</ele>
        <time>2021-04-01T12:09:47Z</time>
      </trkpt>
      <trkpt lat="48.96718" lon="-0.37448">
        <ele>156.83</ele>
        <time>2021-04-01T12:10:12Z</time>
      </trkpt>
      <trkpt lat="48.96697" lon="-0.37465">
        <ele>157.31</ele>
        <time>2021-04-01T12:10:34Z</time>
      </trkpt>
      <trkpt lat="48.96677" lon="-0.37471">
        <ele>157.79</ele>
        <time>2021-04-01T12:10:52Z</time>
      </trkpt>
      <trkpt lat="48.96652" lon="-0.37491">
        <ele>158.75</ele>
        <time>2021-04-01T12:11:16Z</time>
      </trkpt>
      <trkpt lat="48.96628" lon="-0.37508">
        <ele>159.72</ele>
        <time>2021-04-01T12:11:41Z</time>
      </trkpt>
      <trkpt lat="48.96607" lon="-0.37523">
        <ele>161.16</ele>
        <time>2021-04-01T12:12:04Z</time>
      </trkpt>
      <trkpt lat="48.96572" lon="-0.37547">
        <ele>163.08</ele>
        <time>2021-04-01T12:12:26Z</time>
      </trkpt>
      <trkpt lat="48.96553" lon="-0.37551">
        <ele>163.08</ele>
        <time>2021-04-01T12:12:41Z</time>
      </trkpt>
      <trkpt lat="48.96536" lon="-0.37564">
        <ele>164.04</ele>
        <time>2021-04-01T12:12:58Z</time>
      </trkpt>
      <trkpt lat="48.96512" lon="-0.37577">
        <ele>165.96</ele>
        <time>2021-04-01T12:13:23Z</time>
      </trkpt>
      <trkpt lat="48.96484" lon="-0.37594">
        <ele>166.93</ele>
        <time>2021-04-01T12:13:50Z</time>
      </trkpt>
      <trkpt lat="48.96469" lon="-0.37615">
        <ele>167.89</ele>
        <time>2021-04-01T12:14:13Z</time>
      </trkpt>
      <trkpt lat="48.96465" lon="-0.37617">
        <ele>167.89</ele>
        <time>2021-04-01T12:14:43Z</time>
      </trkpt>
      <trkpt lat="48.96443" lon="-0.37643">
        <ele>168.37</ele>
        <time>2021-04-01T12:15:06Z</time>
      </trkpt>
      <trkpt lat="48.96426" lon="-0.3768">
        <ele>168.85</ele>
        <time>2021-04-01T12:15:30Z</time>
      </trkpt>
      <trkpt lat="48.96409" lon="-0.37716">
        <ele>169.33</ele>
        <time>2021-04-01T12:15:55Z</time>
      </trkpt>
      <trkpt lat="48.9639" lon="-0.37761">
        <ele>170.29</ele>
        <time>2021-04-01T12:16:22Z</time>
      </trkpt>
      <trkpt lat="48.96377" lon="-0.37791">
        <ele>169.81</ele>
        <time>2021-04-01T12:16:41Z</time>
      </trkpt>
      <trkpt lat="48.96362" lon="-0.37823">
        <ele>170.29</ele>
        <time>2021-04-01T12:17:03Z</time>
      </trkpt>
      <trkpt lat="48.96345" lon="-0.3786">
        <ele>171.25</ele>
        <time>2021-04-01T12:17:27Z</time>
      </trkpt>
      <trkpt lat="48.96323" lon="-0.37894">
        <ele>172.21</ele>
        <time>2021-04-01T12:17:51Z</time>
      </trkpt>
      <trkpt lat="48.96306" lon="-0.37939">
        <ele>172.21</ele>
        <time>2021-04-01T12:18:20Z</time>
      </trkpt>
      <trkpt lat="48.96285" lon="-0.37971">
        <ele>171.73</ele>
        <time>2021-04-01T12:18:44Z</time>
      </trkpt>
      <trkpt lat="48.9628" lon="-0.37993">
        <ele>171.25</ele>
        <time>2021-04-01T12:19:05Z</time>
      </trkpt>
      <trkpt lat="48.9627" lon="-0.37984">
        <ele>172.21</ele>
        <time>2021-04-01T12:19:25Z</time>
      </trkpt>
      <trkpt lat="48.96267" lon="-0.37982">
        <ele>172.21</ele>
        <time>2021-04-01T12:19:27Z</time>
      </trkpt>
      <trkpt lat="48.9624" lon="-0.37961">
        <ele>174.14</ele>
        <time>2021-04-01T12:19:47Z</time>
      </trkpt>
      <trkpt lat="48.96222" lon="-0.37952">
        <ele>175.1</ele>
        <time>2021-04-01T12:20:04Z</time>
      </trkpt>
      <trkpt lat="48.96207" lon="-0.37939">
        <ele>176.54</ele>
        <time>2021-04-01T12:20:21Z</time>
      </trkpt>
      <trkpt lat="48.96188" lon="-0.37924">
        <ele>177.5</ele>
        <time>2021-04-01T12:20:39Z</time>
      </trkpt>
      <trkpt lat="48.96182" lon="-0.3792">
        <ele>177.98</ele>
        <time>2021-04-01T12:20:55Z</time>
      </trkpt>
      <trkpt lat="48.96182" lon="-0.37916">
        <ele>177.98</ele>
        <time>2021-04-01T12:21:37Z</time>
      </trkpt>
      <trkpt lat="48.96179" lon="-0.37914">
        <ele>177.98</ele>
        <time>2021-04-01T12:22:01Z</time>
      </trkpt>
      <trkpt lat="48.9616" lon="-0.37898">
        <ele>179.42</ele>
        <time>2021-04-01T12:22:18Z</time>
      </trkpt>
      <trkpt lat="48.96143" lon="-0.37884">
        <ele>180.38</ele>
        <time>2021-04-01T12:22:36Z</time>
      </trkpt>
      <trkpt lat="48.96115" lon="-0.37864">
        <ele>181.83</ele>
        <time>2021-04-01T12:23:03Z</time>
      </trkpt>
      <trkpt lat="48.96098" lon="-0.37849">
        <ele>183.27</ele>
        <time>2021-04-01T12:23:22Z</time>
      </trkpt>
      <trkpt lat="48.96098" lon="-0.37845">
        <ele>183.27</ele>
        <time>2021-04-01T12:23:25Z</time>
      </trkpt>
      <trkpt lat="48.96089" lon="-0.37836">
        <ele>183.75</ele>
        <time>2021-04-01T12:23:51Z</time>
      </trkpt>
      <trkpt lat="48.96087" lon="-0.37834">
        <ele>184.71</ele>
        <time>2021-04-01T12:26:44Z</time>
      </trkpt>
      <trkpt lat="48.96079" lon="-0.37834">
        <ele>185.19</ele>
        <time>2021-04-01T12:27:55Z</time>
      </trkpt>
      <trkpt lat="48.96072" lon="-0.3783">
        <ele>185.67</ele>
        <time>2021-04-01T12:28:02Z</time>
      </trkpt>
      <trkpt lat="48.96031" lon="-0.37817">
        <ele>186.63</ele>
        <time>2021-04-01T12:28:32Z</time>
      </trkpt>
      <trkpt lat="48.95997" lon="-0.37813">
        <ele>188.08</ele>
        <time>2021-04-01T12:29:00Z</time>
      </trkpt>
      <trkpt lat="48.95969" lon="-0.37808">
        <ele>190</ele>
        <time>2021-04-01T12:29:24Z</time>
      </trkpt>
      <trkpt lat="48.95948" lon="-0.37804">
        <ele>190.48</ele>
        <time>2021-04-01T12:29:42Z</time>
      </trkpt>
      <trkpt lat="48.95933" lon="-0.378">
        <ele>191.44</ele>
        <time>2021-04-01T12:29:55Z</time>
      </trkpt>
      <trkpt lat="48.959" lon="-0.37789">
        <ele>192.88</ele>
        <time>2021-04-01T12:30:21Z</time>
      </trkpt>
      <trkpt lat="48.9587" lon="-0.37776">
        <ele>194.32</ele>
        <time>2021-04-01T12:30:44Z</time>
      </trkpt>
      <trkpt lat="48.9584" lon="-0.37766">
        <ele>195.77</ele>
        <time>2021-04-01T12:31:06Z</time>
      </trkpt>
      <trkpt lat="48.95817" lon="-0.37761">
        <ele>196.73</ele>
        <time>2021-04-01T12:31:25Z</time>
      </trkpt>
      <trkpt lat="48.95793" lon="-0.37759">
        <ele>197.69</ele>
        <time>2021-04-01T12:31:44Z</time>
      </trkpt>
      <trkpt lat="48.9578" lon="-0.37757">
        <ele>198.65</ele>
        <time>2021-04-01T12:31:58Z</time>
      </trkpt>
      <trkpt lat="48.95772" lon="-0.37727">
        <ele>199.61</ele>
        <time>2021-04-01T12:32:17Z</time>
      </trkpt>
      <trkpt lat="48.95765" lon="-0.37695">
        <ele>200.09</ele>
        <time>2021-04-01T12:32:37Z</time>
      </trkpt>
      <trkpt lat="48.95761" lon="-0.37692">
        <ele>200.09</ele>
        <time>2021-04-01T12:32:41Z</time>
      </trkpt>
      <trkpt lat="48.95752" lon="-0.37705">
        <ele>201.05</ele>
        <time>2021-04-01T12:32:52Z</time>
      </trkpt>
      <trkpt lat="48.95742" lon="-0.3772">
        <ele>201.05</ele>
        <time>2021-04-01T12:33:03Z</time>
      </trkpt>
      <trkpt lat="48.95733" lon="-0.3775">
        <ele>201.05</ele>
        <time>2021-04-01T12:33:20Z</time>
      </trkpt>
      <trkpt lat="48.95727" lon="-0.37787">
        <ele>201.05</ele>
        <time>2021-04-01T12:33:40Z</time>
      </trkpt>
      <trkpt lat="48.95722" lon="-0.37828">
        <ele>200.09</ele>
        <time>2021-04-01T12:34:00Z</time>
      </trkpt>
      <trkpt lat="48.95714" lon="-0.37864">
        <ele>200.09</ele>
        <time>2021-04-01T12:34:21Z</time>
      </trkpt>
      <trkpt lat="48.95712" lon="-0.37898">
        <ele>199.61</ele>
        <time>2021-04-01T12:34:38Z</time>
      </trkpt>
      <trkpt lat="48.95703" lon="-0.37937">
        <ele>199.61</ele>
        <time>2021-04-01T12:34:58Z</time>
      </trkpt>
      <trkpt lat="48.95695" lon="-0.37965">
        <ele>199.13</ele>
        <time>2021-04-01T12:35:16Z</time>
      </trkpt>
      <trkpt lat="48.95692" lon="-0.37969">
        <ele>198.65</ele>
        <time>2021-04-01T12:35:29Z</time>
      </trkpt>
      <trkpt lat="48.95692" lon="-0.37971">
        <ele>198.65</ele>
        <time>2021-04-01T12:35:30Z</time>
      </trkpt>
      <trkpt lat="48.95688" lon="-0.37987">
        <ele>198.65</ele>
        <time>2021-04-01T12:35:40Z</time>
      </trkpt>
      <trkpt lat="48.95671" lon="-0.38021">
        <ele>197.69</ele>
        <time>2021-04-01T12:36:02Z</time>
      </trkpt>
      <trkpt lat="48.95662" lon="-0.38045">
        <ele>197.69</ele>
        <time>2021-04-01T12:36:19Z</time>
      </trkpt>
      <trkpt lat="48.95647" lon="-0.38075">
        <ele>197.21</ele>
        <time>2021-04-01T12:36:38Z</time>
      </trkpt>
      <trkpt lat="48.95632" lon="-0.38105">
        <ele>196.25</ele>
        <time>2021-04-01T12:36:57Z</time>
      </trkpt>
      <trkpt lat="48.95622" lon="-0.38147">
        <ele>195.77</ele>
        <time>2021-04-01T12:37:17Z</time>
      </trkpt>
      <trkpt lat="48.95617" lon="-0.38167">
        <ele>195.28</ele>
        <time>2021-04-01T12:37:28Z</time>
      </trkpt>
      <trkpt lat="48.95619" lon="-0.38177">
        <ele>194.32</ele>
        <time>2021-04-01T12:37:35Z</time>
      </trkpt>
      <trkpt lat="48.95615" lon="-0.38201">
        <ele>193.84</ele>
        <time>2021-04-01T12:37:54Z</time>
      </trkpt>
      <trkpt lat="48.95613" lon="-0.38203">
        <ele>194.32</ele>
        <time>2021-04-01T12:38:04Z</time>
      </trkpt>
      <trkpt lat="48.95579" lon="-0.3821">
        <ele>193.84</ele>
        <time>2021-04-01T12:38:31Z</time>
      </trkpt>
      <trkpt lat="48.95557" lon="-0.38218">
        <ele>193.84</ele>
        <time>2021-04-01T12:38:46Z</time>
      </trkpt>
      <trkpt lat="48.95536" lon="-0.38233">
        <ele>193.36</ele>
        <time>2021-04-01T12:39:05Z</time>
      </trkpt>
      <trkpt lat="48.95523" lon="-0.38244">
        <ele>193.36</ele>
        <time>2021-04-01T12:39:17Z</time>
      </trkpt>
      <trkpt lat="48.95499" lon="-0.3827">
        <ele>192.88</ele>
        <time>2021-04-01T12:39:39Z</time>
      </trkpt>
      <trkpt lat="48.95484" lon="-0.383">
        <ele>191.92</ele>
        <time>2021-04-01T12:40:01Z</time>
      </trkpt>
      <trkpt lat="48.95463" lon="-0.38325">
        <ele>191.92</ele>
        <time>2021-04-01T12:40:26Z</time>
      </trkpt>
      <trkpt lat="48.95441" lon="-0.38338">
        <ele>192.4</ele>
        <time>2021-04-01T12:40:46Z</time>
      </trkpt>
      <trkpt lat="48.95426" lon="-0.38345">
        <ele>193.84</ele>
        <time>2021-04-01T12:41:00Z</time>
      </trkpt>
      <trkpt lat="48.95409" lon="-0.38343">
        <ele>193.84</ele>
        <time>2021-04-01T12:41:18Z</time>
      </trkpt>
      <trkpt lat="48.95388" lon="-0.38338">
        <ele>194.32</ele>
        <time>2021-04-01T12:41:35Z</time>
      </trkpt>
      <trkpt lat="48.95368" lon="-0.38345">
        <ele>194.8</ele>
        <time>2021-04-01T12:41:47Z</time>
      </trkpt>
      <trkpt lat="48.95353" lon="-0.38386">
        <ele>195.77</ele>
        <time>2021-04-01T12:42:09Z</time>
      </trkpt>
      <trkpt lat="48.95349" lon="-0.38435">
        <ele>197.21</ele>
        <time>2021-04-01T12:42:33Z</time>
      </trkpt>
      <trkpt lat="48.95343" lon="-0.38469">
        <ele>197.69</ele>
        <time>2021-04-01T12:42:52Z</time>
      </trkpt>
      <trkpt lat="48.95341" lon="-0.38502">
        <ele>197.69</ele>
        <time>2021-04-01T12:43:10Z</time>
      </trkpt>
      <trkpt lat="48.95336" lon="-0.38529">
        <ele>198.17</ele>
        <time>2021-04-01T12:43:28Z</time>
      </trkpt>
      <trkpt lat="48.95332" lon="-0.38553">
        <ele>198.17</ele>
        <time>2021-04-01T12:43:45Z</time>
      </trkpt>
      <trkpt lat="48.95323" lon="-0.38579">
        <ele>198.17</ele>
        <time>2021-04-01T12:44:00Z</time>
      </trkpt>
      <trkpt lat="48.95308" lon="-0.3857">
        <ele>199.13</ele>
        <time>2021-04-01T12:44:18Z</time>
      </trkpt>
      <trkpt lat="48.95313" lon="-0.3857">
        <ele>198.65</ele>
        <time>2021-04-01T12:44:37Z</time>
      </trkpt>
      <trkpt lat="48.95308" lon="-0.38568">
        <ele>199.13</ele>
        <time>2021-04-01T12:44:52Z</time>
      </trkpt>
      <trkpt lat="48.95285" lon="-0.38566">
        <ele>199.13</ele>
        <time>2021-04-01T12:45:07Z</time>
      </trkpt>
      <trkpt lat="48.95276" lon="-0.38559">
        <ele>199.61</ele>
        <time>2021-04-01T12:45:22Z</time>
      </trkpt>
      <trkpt lat="48.95259" lon="-0.38555">
        <ele>199.61</ele>
        <time>2021-04-01T12:45:36Z</time>
      </trkpt>
      <trkpt lat="48.95248" lon="-0.38551">
        <ele>199.61</ele>
        <time>2021-04-01T12:45:49Z</time>
      </trkpt>
      <trkpt lat="48.95231" lon="-0.38542">
        <ele>200.09</ele>
        <time>2021-04-01T12:46:02Z</time>
      </trkpt>
      <trkpt lat="48.9521" lon="-0.38531">
        <ele>200.09</ele>
        <time>2021-04-01T12:46:22Z</time>
      </trkpt>
      <trkpt lat="48.9519" lon="-0.38527">
        <ele>200.57</ele>
        <time>2021-04-01T12:46:38Z</time>
      </trkpt>
      <trkpt lat="48.95169" lon="-0.38516">
        <ele>200.57</ele>
        <time>2021-04-01T12:46:58Z</time>
      </trkpt>
      <trkpt lat="48.95141" lon="-0.38506">
        <ele>201.05</ele>
        <time>2021-04-01T12:47:21Z</time>
      </trkpt>
      <trkpt lat="48.95113" lon="-0.38497">
        <ele>201.53</ele>
        <time>2021-04-01T12:47:45Z</time>
      </trkpt>
      <trkpt lat="48.95094" lon="-0.38489">
        <ele>202.01</ele>
        <time>2021-04-01T12:48:02Z</time>
      </trkpt>
      <trkpt lat="48.95072" lon="-0.38478">
        <ele>202.01</ele>
        <time>2021-04-01T12:48:20Z</time>
      </trkpt>
      <trkpt lat="48.95051" lon="-0.38469">
        <ele>202.49</ele>
        <time>2021-04-01T12:48:39Z</time>
      </trkpt>
      <trkpt lat="48.95034" lon="-0.38478">
        <ele>202.98</ele>
        <time>2021-04-01T12:48:55Z</time>
      </trkpt>
      <trkpt lat="48.95023" lon="-0.38472">
        <ele>202.98</ele>
        <time>2021-04-01T12:49:08Z</time>
      </trkpt>
      <trkpt lat="48.9501" lon="-0.38469">
        <ele>203.46</ele>
        <time>2021-04-01T12:49:21Z</time>
      </trkpt>
      <trkpt lat="48.94989" lon="-0.38461">
        <ele>203.94</ele>
        <time>2021-04-01T12:49:37Z</time>
      </trkpt>
      <trkpt lat="48.94967" lon="-0.38456">
        <ele>203.94</ele>
        <time>2021-04-01T12:49:53Z</time>
      </trkpt>
      <trkpt lat="48.94944" lon="-0.3845">
        <ele>204.9</ele>
        <time>2021-04-01T12:50:13Z</time>
      </trkpt>
      <trkpt lat="48.9492" lon="-0.38444">
        <ele>204.9</ele>
        <time>2021-04-01T12:50:29Z</time>
      </trkpt>
      <trkpt lat="48.94903" lon="-0.38439">
        <ele>204.9</ele>
        <time>2021-04-01T12:50:45Z</time>
      </trkpt>
      <trkpt lat="48.94884" lon="-0.38437">
        <ele>205.38</ele>
        <time>2021-04-01T12:51:03Z</time>
      </trkpt>
      <trkpt lat="48.9486" lon="-0.38437">
        <ele>205.86</ele>
        <time>2021-04-01T12:51:21Z</time>
      </trkpt>
      <trkpt lat="48.94843" lon="-0.38439">
        <ele>205.86</ele>
        <time>2021-04-01T12:51:41Z</time>
      </trkpt>
      <trkpt lat="48.94821" lon="-0.38437">
        <ele>206.34</ele>
        <time>2021-04-01T12:52:00Z</time>
      </trkpt>
      <trkpt lat="48.94793" lon="-0.38433">
        <ele>206.34</ele>
        <time>2021-04-01T12:52:19Z</time>
      </trkpt>
      <trkpt lat="48.94772" lon="-0.38431">
        <ele>206.82</ele>
        <time>2021-04-01T12:52:37Z</time>
      </trkpt>
      <trkpt lat="48.94757" lon="-0.38429">
        <ele>206.82</ele>
        <time>2021-04-01T12:52:50Z</time>
      </trkpt>
      <trkpt lat="48.94729" lon="-0.38433">
        <ele>206.82</ele>
        <time>2021-04-01T12:53:13Z</time>
      </trkpt>
      <trkpt lat="48.94699" lon="-0.38431">
        <ele>206.34</ele>
        <time>2021-04-01T12:53:36Z</time>
      </trkpt>
      <trkpt lat="48.94675" lon="-0.38429">
        <ele>207.3</ele>
        <time>2021-04-01T12:53:57Z</time>
      </trkpt>
      <trkpt lat="48.94667" lon="-0.38426">
        <ele>207.3</ele>
        <time>2021-04-01T12:54:05Z</time>
      </trkpt>
      <trkpt lat="48.9465" lon="-0.38429">
        <ele>206.82</ele>
        <time>2021-04-01T12:54:24Z</time>
      </trkpt>
      <trkpt lat="48.94635" lon="-0.38426">
        <ele>206.82</ele>
        <time>2021-04-01T12:54:45Z</time>
      </trkpt>
      <trkpt lat="48.94622" lon="-0.38433">
        <ele>207.3</ele>
        <time>2021-04-01T12:55:11Z</time>
      </trkpt>
      <trkpt lat="48.94615" lon="-0.38429">
        <ele>206.82</ele>
        <time>2021-04-01T12:55:30Z</time>
      </trkpt>
      <trkpt lat="48.94605" lon="-0.38431">
        <ele>207.3</ele>
        <time>2021-04-01T12:55:46Z</time>
      </trkpt>
      <trkpt lat="48.946" lon="-0.38435">
        <ele>207.3</ele>
        <time>2021-04-01T12:56:07Z</time>
      </trkpt>
      <trkpt lat="48.94581" lon="-0.38429">
        <ele>207.3</ele>
        <time>2021-04-01T12:56:28Z</time>
      </trkpt>
      <trkpt lat="48.94572" lon="-0.38431">
        <ele>207.3</ele>
        <time>2021-04-01T12:56:54Z</time>
      </trkpt>
      <trkpt lat="48.94566" lon="-0.38431">
        <ele>207.78</ele>
        <time>2021-04-01T12:57:19Z</time>
      </trkpt>
      <trkpt lat="48.94559" lon="-0.38437">
        <ele>208.26</ele>
        <time>2021-04-01T12:57:44Z</time>
      </trkpt>
      <trkpt lat="48.94542" lon="-0.38429">
        <ele>208.74</ele>
        <time>2021-04-01T12:58:07Z</time>
      </trkpt>
      <trkpt lat="48.94529" lon="-0.38431">
        <ele>208.74</ele>
        <time>2021-04-01T12:58:18Z</time>
      </trkpt>
      <trkpt lat="48.94508" lon="-0.38429">
        <ele>208.74</ele>
        <time>2021-04-01T12:58:41Z</time>
      </trkpt>
      <trkpt lat="48.94487" lon="-0.38429">
        <ele>209.22</ele>
        <time>2021-04-01T12:59:05Z</time>
      </trkpt>
      <trkpt lat="48.94463" lon="-0.38435">
        <ele>209.22</ele>
        <time>2021-04-01T12:59:26Z</time>
      </trkpt>
      <trkpt lat="48.94441" lon="-0.38441">
        <ele>210.19</ele>
        <time>2021-04-01T12:59:50Z</time>
      </trkpt>
      <trkpt lat="48.94411" lon="-0.38444">
        <ele>210.19</ele>
        <time>2021-04-01T13:00:14Z</time>
      </trkpt>
      <trkpt lat="48.94401" lon="-0.38437">
        <ele>210.67</ele>
        <time>2021-04-01T13:00:34Z</time>
      </trkpt>
      <trkpt lat="48.94394" lon="-0.38448">
        <ele>210.67</ele>
        <time>2021-04-01T13:00:57Z</time>
      </trkpt>
      <trkpt lat="48.94383" lon="-0.38448">
        <ele>210.67</ele>
        <time>2021-04-01T13:01:13Z</time>
      </trkpt>
      <trkpt lat="48.94369" lon="-0.38446">
        <ele>211.15</ele>
        <time>2021-04-01T13:01:32Z</time>
      </trkpt>
      <trkpt lat="48.94347" lon="-0.3845">
        <ele>210.67</ele>
        <time>2021-04-01T13:01:51Z</time>
      </trkpt>
      <trkpt lat="48.94341" lon="-0.38454">
        <ele>211.15</ele>
        <time>2021-04-01T13:02:15Z</time>
      </trkpt>
      <trkpt lat="48.94349" lon="-0.38465">
        <ele>211.15</ele>
        <time>2021-04-01T13:03:02Z</time>
      </trkpt>
      <trkpt lat="48.94345" lon="-0.38459">
        <ele>211.15</ele>
        <time>2021-04-01T13:03:26Z</time>
      </trkpt>
      <trkpt lat="48.94338" lon="-0.38461">
        <ele>211.63</ele>
        <time>2021-04-01T13:04:05Z</time>
      </trkpt>
      <trkpt lat="48.94341" lon="-0.38459">
        <ele>211.63</ele>
        <time>2021-04-01T13:04:47Z</time>
      </trkpt>
      <trkpt lat="48.94338" lon="-0.38484">
        <ele>212.11</ele>
        <time>2021-04-01T13:05:31Z</time>
      </trkpt>
      <trkpt lat="48.94343" lon="-0.38525">
        <ele>213.07</ele>
        <time>2021-04-01T13:05:58Z</time>
      </trkpt>
      <trkpt lat="48.94345" lon="-0.38553">
        <ele>213.55</ele>
        <time>2021-04-01T13:06:16Z</time>
      </trkpt>
      <trkpt lat="48.94347" lon="-0.38609">
        <ele>214.51</ele>
        <time>2021-04-01T13:06:45Z</time>
      </trkpt>
      <trkpt lat="48.94345" lon="-0.38658">
        <ele>214.99</ele>
        <time>2021-04-01T13:07:11Z</time>
      </trkpt>
      <trkpt lat="48.94351" lon="-0.38684">
        <ele>214.99</ele>
        <time>2021-04-01T13:07:26Z</time>
      </trkpt>
      <trkpt lat="48.94358" lon="-0.38742">
        <ele>214.99</ele>
        <time>2021-04-01T13:07:54Z</time>
      </trkpt>
      <trkpt lat="48.9436" lon="-0.38787">
        <ele>215.47</ele>
        <time>2021-04-01T13:08:21Z</time>
      </trkpt>
      <trkpt lat="48.94364" lon="-0.38828">
        <ele>214.99</ele>
        <time>2021-04-01T13:08:45Z</time>
      </trkpt>
      <trkpt lat="48.9436" lon="-0.38879">
        <ele>214.03</ele>
        <time>2021-04-01T13:09:12Z</time>
      </trkpt>
      <trkpt lat="48.94369" lon="-0.3892">
        <ele>213.07</ele>
        <time>2021-04-01T13:09:36Z</time>
      </trkpt>
      <trkpt lat="48.94369" lon="-0.38967">
        <ele>211.63</ele>
        <time>2021-04-01T13:09:58Z</time>
      </trkpt>
      <trkpt lat="48.94371" lon="-0.38991">
        <ele>210.67</ele>
        <time>2021-04-01T13:10:09Z</time>
      </trkpt>
      <trkpt lat="48.94377" lon="-0.39031">
        <ele>209.22</ele>
        <time>2021-04-01T13:10:34Z</time>
      </trkpt>
      <trkpt lat="48.94386" lon="-0.39057">
        <ele>207.78</ele>
        <time>2021-04-01T13:10:51Z</time>
      </trkpt>
      <trkpt lat="48.94399" lon="-0.39092">
        <ele>204.42</ele>
        <time>2021-04-01T13:11:17Z</time>
      </trkpt>
      <trkpt lat="48.94403" lon="-0.39126">
        <ele>202.01</ele>
        <time>2021-04-01T13:11:39Z</time>
      </trkpt>
      <trkpt lat="48.94411" lon="-0.39154">
        <ele>199.61</ele>
        <time>2021-04-01T13:11:57Z</time>
      </trkpt>
      <trkpt lat="48.94418" lon="-0.3916">
        <ele>198.17</ele>
        <time>2021-04-01T13:12:10Z</time>
      </trkpt>
      <trkpt lat="48.94446" lon="-0.39171">
        <ele>196.73</ele>
        <time>2021-04-01T13:12:42Z</time>
      </trkpt>
      <trkpt lat="48.9445" lon="-0.39169">
        <ele>196.73</ele>
        <time>2021-04-01T13:12:45Z</time>
      </trkpt>
      <trkpt lat="48.94469" lon="-0.3918">
        <ele>198.65</ele>
        <time>2021-04-01T13:13:09Z</time>
      </trkpt>
      <trkpt lat="48.94478" lon="-0.39195">
        <ele>200.57</ele>
        <time>2021-04-01T13:13:31Z</time>
      </trkpt>
      <trkpt lat="48.94478" lon="-0.39218">
        <ele>203.46</ele>
        <time>2021-04-01T13:14:00Z</time>
      </trkpt>
      <trkpt lat="48.94484" lon="-0.39244">
        <ele>205.38</ele>
        <time>2021-04-01T13:14:28Z</time>
      </trkpt>
      <trkpt lat="48.94491" lon="-0.39272">
        <ele>208.74</ele>
        <time>2021-04-01T13:14:59Z</time>
      </trkpt>
      <trkpt lat="48.94497" lon="-0.39293">
        <ele>210.67</ele>
        <time>2021-04-01T13:15:31Z</time>
      </trkpt>
      <trkpt lat="48.94508" lon="-0.3933">
        <ele>212.59</ele>
        <time>2021-04-01T13:16:04Z</time>
      </trkpt>
      <trkpt lat="48.94508" lon="-0.3936">
        <ele>214.51</ele>
        <time>2021-04-01T13:16:28Z</time>
      </trkpt>
      <trkpt lat="48.94514" lon="-0.39392">
        <ele>216.43</ele>
        <time>2021-04-01T13:16:53Z</time>
      </trkpt>
      <trkpt lat="48.94517" lon="-0.39426">
        <ele>217.88</ele>
        <time>2021-04-01T13:17:18Z</time>
      </trkpt>
      <trkpt lat="48.94523" lon="-0.39454">
        <ele>219.8</ele>
        <time>2021-04-01T13:17:41Z</time>
      </trkpt>
      <trkpt lat="48.94529" lon="-0.39476">
        <ele>221.24</ele>
        <time>2021-04-01T13:17:59Z</time>
      </trkpt>
      <trkpt lat="48.9454" lon="-0.39514">
        <ele>222.68</ele>
        <time>2021-04-01T13:18:25Z</time>
      </trkpt>
      <trkpt lat="48.94542" lon="-0.39532">
        <ele>222.68</ele>
        <time>2021-04-01T13:18:57Z</time>
      </trkpt>
      <trkpt lat="48.94555" lon="-0.39562">
        <ele>223.64</ele>
        <time>2021-04-01T13:19:53Z</time>
      </trkpt>
      <trkpt lat="48.94564" lon="-0.39581">
        <ele>224.61</ele>
        <time>2021-04-01T13:20:11Z</time>
      </trkpt>
      <trkpt lat="48.94566" lon="-0.39604">
        <ele>225.09</ele>
        <time>2021-04-01T13:21:07Z</time>
      </trkpt>
      <trkpt lat="48.9457" lon="-0.39637">
        <ele>226.05</ele>
        <time>2021-04-01T13:21:33Z</time>
      </trkpt>
      <trkpt lat="48.94583" lon="-0.39667">
        <ele>227.49</ele>
        <time>2021-04-01T13:21:53Z</time>
      </trkpt>
      <trkpt lat="48.94587" lon="-0.39688">
        <ele>228.45</ele>
        <time>2021-04-01T13:22:16Z</time>
      </trkpt>
      <trkpt lat="48.94587" lon="-0.39707">
        <ele>228.45</ele>
        <time>2021-04-01T13:22:36Z</time>
      </trkpt>
      <trkpt lat="48.94592" lon="-0.39716">
        <ele>227.97</ele>
        <time>2021-04-01T13:23:19Z</time>
      </trkpt>
      <trkpt lat="48.94596" lon="-0.39727">
        <ele>227.49</ele>
        <time>2021-04-01T13:27:04Z</time>
      </trkpt>
      <trkpt lat="48.94594" lon="-0.39755">
        <ele>227.97</ele>
        <time>2021-04-01T13:27:56Z</time>
      </trkpt>
      <trkpt lat="48.94598" lon="-0.39791">
        <ele>228.93</ele>
        <time>2021-04-01T13:28:20Z</time>
      </trkpt>
      <trkpt lat="48.946" lon="-0.39798">
        <ele>228.93</ele>
        <time>2021-04-01T13:28:52Z</time>
      </trkpt>
      <trkpt lat="48.94622" lon="-0.39802">
        <ele>228.45</ele>
        <time>2021-04-01T13:29:07Z</time>
      </trkpt>
      <trkpt lat="48.94645" lon="-0.398">
        <ele>227.49</ele>
        <time>2021-04-01T13:29:26Z</time>
      </trkpt>
      <trkpt lat="48.94665" lon="-0.39798">
        <ele>227.01</ele>
        <time>2021-04-01T13:29:45Z</time>
      </trkpt>
      <trkpt lat="48.94684" lon="-0.398">
        <ele>226.53</ele>
        <time>2021-04-01T13:30:01Z</time>
      </trkpt>
      <trkpt lat="48.94708" lon="-0.39795">
        <ele>225.57</ele>
        <time>2021-04-01T13:30:18Z</time>
      </trkpt>
      <trkpt lat="48.9472" lon="-0.39793">
        <ele>225.09</ele>
        <time>2021-04-01T13:30:31Z</time>
      </trkpt>
      <trkpt lat="48.94742" lon="-0.39789">
        <ele>225.09</ele>
        <time>2021-04-01T13:30:49Z</time>
      </trkpt>
      <trkpt lat="48.9477" lon="-0.39793">
        <ele>223.64</ele>
        <time>2021-04-01T13:31:09Z</time>
      </trkpt>
      <trkpt lat="48.94791" lon="-0.39791">
        <ele>223.16</ele>
        <time>2021-04-01T13:31:27Z</time>
      </trkpt>
      <trkpt lat="48.94819" lon="-0.39789">
        <ele>222.2</ele>
        <time>2021-04-01T13:31:47Z</time>
      </trkpt>
      <trkpt lat="48.94843" lon="-0.3978">
        <ele>221.24</ele>
        <time>2021-04-01T13:32:07Z</time>
      </trkpt>
      <trkpt lat="48.94866" lon="-0.39778">
        <ele>219.8</ele>
        <time>2021-04-01T13:32:26Z</time>
      </trkpt>
      <trkpt lat="48.94888" lon="-0.3978">
        <ele>219.32</ele>
        <time>2021-04-01T13:32:43Z</time>
      </trkpt>
      <trkpt lat="48.94901" lon="-0.39772">
        <ele>219.32</ele>
        <time>2021-04-01T13:33:00Z</time>
      </trkpt>
      <trkpt lat="48.94935" lon="-0.39765">
        <ele>217.4</ele>
        <time>2021-04-01T13:33:24Z</time>
      </trkpt>
      <trkpt lat="48.94961" lon="-0.39761">
        <ele>216.43</ele>
        <time>2021-04-01T13:33:46Z</time>
      </trkpt>
      <trkpt lat="48.94967" lon="-0.39759">
        <ele>215.95</ele>
        <time>2021-04-01T13:33:52Z</time>
      </trkpt>
      <trkpt lat="48.94991" lon="-0.39757">
        <ele>214.03</ele>
        <time>2021-04-01T13:34:12Z</time>
      </trkpt>
      <trkpt lat="48.95008" lon="-0.39755">
        <ele>213.55</ele>
        <time>2021-04-01T13:34:26Z</time>
      </trkpt>
      <trkpt lat="48.95021" lon="-0.39753">
        <ele>213.07</ele>
        <time>2021-04-01T13:34:41Z</time>
      </trkpt>
      <trkpt lat="48.95034" lon="-0.3975">
        <ele>211.63</ele>
        <time>2021-04-01T13:34:57Z</time>
      </trkpt>
      <trkpt lat="48.9504" lon="-0.39744">
        <ele>211.63</ele>
        <time>2021-04-01T13:35:16Z</time>
      </trkpt>
      <trkpt lat="48.95059" lon="-0.3974">
        <ele>209.22</ele>
        <time>2021-04-01T13:35:31Z</time>
      </trkpt>
      <trkpt lat="48.95083" lon="-0.39731">
        <ele>207.3</ele>
        <time>2021-04-01T13:35:51Z</time>
      </trkpt>
      <trkpt lat="48.95094" lon="-0.39727">
        <ele>205.86</ele>
        <time>2021-04-01T13:36:00Z</time>
      </trkpt>
      <trkpt lat="48.95098" lon="-0.39737">
        <ele>206.82</ele>
        <time>2021-04-01T13:36:12Z</time>
      </trkpt>
      <trkpt lat="48.95109" lon="-0.39757">
        <ele>205.86</ele>
        <time>2021-04-01T13:36:31Z</time>
      </trkpt>
      <trkpt lat="48.9513" lon="-0.39791">
        <ele>203.46</ele>
        <time>2021-04-01T13:36:57Z</time>
      </trkpt>
      <trkpt lat="48.95145" lon="-0.39838">
        <ele>200.57</ele>
        <time>2021-04-01T13:37:30Z</time>
      </trkpt>
      <trkpt lat="48.95164" lon="-0.39883">
        <ele>198.65</ele>
        <time>2021-04-01T13:37:57Z</time>
      </trkpt>
      <trkpt lat="48.95177" lon="-0.39898">
        <ele>196.73</ele>
        <time>2021-04-01T13:38:21Z</time>
      </trkpt>
      <trkpt lat="48.95197" lon="-0.3992">
        <ele>193.36</ele>
        <time>2021-04-01T13:38:46Z</time>
      </trkpt>
      <trkpt lat="48.95218" lon="-0.39939">
        <ele>191.92</ele>
        <time>2021-04-01T13:39:10Z</time>
      </trkpt>
      <trkpt lat="48.95242" lon="-0.39959">
        <ele>188.56</ele>
        <time>2021-04-01T13:39:35Z</time>
      </trkpt>
      <trkpt lat="48.95255" lon="-0.39961">
        <ele>186.15</ele>
        <time>2021-04-01T13:39:49Z</time>
      </trkpt>
      <trkpt lat="48.95278" lon="-0.39991">
        <ele>184.23</ele>
        <time>2021-04-01T13:40:13Z</time>
      </trkpt>
      <trkpt lat="48.953" lon="-0.39991">
        <ele>184.71</ele>
        <time>2021-04-01T13:40:34Z</time>
      </trkpt>
      <trkpt lat="48.95332" lon="-0.39995">
        <ele>186.15</ele>
        <time>2021-04-01T13:41:05Z</time>
      </trkpt>
      <trkpt lat="48.95351" lon="-0.40006">
        <ele>188.08</ele>
        <time>2021-04-01T13:41:31Z</time>
      </trkpt>
      <trkpt lat="48.95353" lon="-0.40001">
        <ele>188.08</ele>
        <time>2021-04-01T13:41:51Z</time>
      </trkpt>
      <trkpt lat="48.95362" lon="-0.39997">
        <ele>188.56</ele>
        <time>2021-04-01T13:41:56Z</time>
      </trkpt>
      <trkpt lat="48.95373" lon="-0.39989">
        <ele>188.56</ele>
        <time>2021-04-01T13:42:06Z</time>
      </trkpt>
      <trkpt lat="48.95392" lon="-0.39961">
        <ele>188.08</ele>
        <time>2021-04-01T13:42:27Z</time>
      </trkpt>
      <trkpt lat="48.95403" lon="-0.3995">
        <ele>188.08</ele>
        <time>2021-04-01T13:42:37Z</time>
      </trkpt>
      <trkpt lat="48.95418" lon="-0.39935">
        <ele>188.08</ele>
        <time>2021-04-01T13:42:55Z</time>
      </trkpt>
      <trkpt lat="48.95435" lon="-0.39913">
        <ele>187.11</ele>
        <time>2021-04-01T13:43:10Z</time>
      </trkpt>
      <trkpt lat="48.95461" lon="-0.39896">
        <ele>187.11</ele>
        <time>2021-04-01T13:43:28Z</time>
      </trkpt>
      <trkpt lat="48.95486" lon="-0.39873">
        <ele>186.63</ele>
        <time>2021-04-01T13:43:51Z</time>
      </trkpt>
      <trkpt lat="48.95506" lon="-0.39843">
        <ele>186.63</ele>
        <time>2021-04-01T13:44:13Z</time>
      </trkpt>
      <trkpt lat="48.95521" lon="-0.39813">
        <ele>185.67</ele>
        <time>2021-04-01T13:44:35Z</time>
      </trkpt>
      <trkpt lat="48.95527" lon="-0.39791">
        <ele>185.19</ele>
        <time>2021-04-01T13:44:57Z</time>
      </trkpt>
      <trkpt lat="48.95542" lon="-0.3975">
        <ele>184.23</ele>
        <time>2021-04-01T13:45:26Z</time>
      </trkpt>
      <trkpt lat="48.95557" lon="-0.3972">
        <ele>183.75</ele>
        <time>2021-04-01T13:45:46Z</time>
      </trkpt>
      <trkpt lat="48.95559" lon="-0.39718">
        <ele>183.75</ele>
        <time>2021-04-01T13:45:48Z</time>
      </trkpt>
      <trkpt lat="48.95574" lon="-0.39686">
        <ele>182.79</ele>
        <time>2021-04-01T13:46:07Z</time>
      </trkpt>
      <trkpt lat="48.95583" lon="-0.3966">
        <ele>181.83</ele>
        <time>2021-04-01T13:46:23Z</time>
      </trkpt>
      <trkpt lat="48.95587" lon="-0.39645">
        <ele>181.35</ele>
        <time>2021-04-01T13:46:40Z</time>
      </trkpt>
      <trkpt lat="48.95609" lon="-0.39617">
        <ele>179.9</ele>
        <time>2021-04-01T13:47:03Z</time>
      </trkpt>
      <trkpt lat="48.95611" lon="-0.39611">
        <ele>179.9</ele>
        <time>2021-04-01T13:47:08Z</time>
      </trkpt>
      <trkpt lat="48.95624" lon="-0.39583">
        <ele>178.94</ele>
        <time>2021-04-01T13:47:26Z</time>
      </trkpt>
      <trkpt lat="48.95641" lon="-0.39546">
        <ele>178.46</ele>
        <time>2021-04-01T13:47:48Z</time>
      </trkpt>
      <trkpt lat="48.95656" lon="-0.39519">
        <ele>177.5</ele>
        <time>2021-04-01T13:48:04Z</time>
      </trkpt>
      <trkpt lat="48.95673" lon="-0.39493">
        <ele>176.54</ele>
        <time>2021-04-01T13:48:22Z</time>
      </trkpt>
      <trkpt lat="48.95684" lon="-0.39469">
        <ele>176.54</ele>
        <time>2021-04-01T13:48:39Z</time>
      </trkpt>
      <trkpt lat="48.95701" lon="-0.39446">
        <ele>175.1</ele>
        <time>2021-04-01T13:48:59Z</time>
      </trkpt>
      <trkpt lat="48.95716" lon="-0.3942">
        <ele>175.1</ele>
        <time>2021-04-01T13:49:17Z</time>
      </trkpt>
      <trkpt lat="48.95733" lon="-0.3939">
        <ele>175.1</ele>
        <time>2021-04-01T13:49:37Z</time>
      </trkpt>
      <trkpt lat="48.95746" lon="-0.39364">
        <ele>175.1</ele>
        <time>2021-04-01T13:49:54Z</time>
      </trkpt>
      <trkpt lat="48.95759" lon="-0.39334">
        <ele>175.58</ele>
        <time>2021-04-01T13:50:13Z</time>
      </trkpt>
      <trkpt lat="48.95774" lon="-0.3931">
        <ele>175.1</ele>
        <time>2021-04-01T13:50:32Z</time>
      </trkpt>
      <trkpt lat="48.95791" lon="-0.39291">
        <ele>173.17</ele>
        <time>2021-04-01T13:51:59Z</time>
      </trkpt>
      <trkpt lat="48.95808" lon="-0.39263">
        <ele>174.14</ele>
        <time>2021-04-01T13:52:17Z</time>
      </trkpt>
      <trkpt lat="48.95825" lon="-0.39235">
        <ele>174.14</ele>
        <time>2021-04-01T13:52:37Z</time>
      </trkpt>
      <trkpt lat="48.95845" lon="-0.39203">
        <ele>173.66</ele>
        <time>2021-04-01T13:53:01Z</time>
      </trkpt>
      <trkpt lat="48.95864" lon="-0.39165">
        <ele>173.66</ele>
        <time>2021-04-01T13:53:25Z</time>
      </trkpt>
      <trkpt lat="48.95877" lon="-0.39141">
        <ele>173.17</ele>
        <time>2021-04-01T13:53:44Z</time>
      </trkpt>
      <trkpt lat="48.95894" lon="-0.39117">
        <ele>172.69</ele>
        <time>2021-04-01T13:54:02Z</time>
      </trkpt>
      <trkpt lat="48.959" lon="-0.39107">
        <ele>172.69</ele>
        <time>2021-04-01T13:54:19Z</time>
      </trkpt>
      <trkpt lat="48.9592" lon="-0.39077">
        <ele>172.21</ele>
        <time>2021-04-01T13:54:39Z</time>
      </trkpt>
      <trkpt lat="48.95941" lon="-0.39051">
        <ele>171.25</ele>
        <time>2021-04-01T13:54:57Z</time>
      </trkpt>
      <trkpt lat="48.95961" lon="-0.39017">
        <ele>170.77</ele>
        <time>2021-04-01T13:55:19Z</time>
      </trkpt>
      <trkpt lat="48.95976" lon="-0.38984">
        <ele>169.81</ele>
        <time>2021-04-01T13:55:38Z</time>
      </trkpt>
      <trkpt lat="48.95993" lon="-0.38956">
        <ele>168.37</ele>
        <time>2021-04-01T13:55:56Z</time>
      </trkpt>
      <trkpt lat="48.96014" lon="-0.38926">
        <ele>167.89</ele>
        <time>2021-04-01T13:56:21Z</time>
      </trkpt>
      <trkpt lat="48.96036" lon="-0.38892">
        <ele>166.93</ele>
        <time>2021-04-01T13:56:45Z</time>
      </trkpt>
      <trkpt lat="48.96051" lon="-0.3886">
        <ele>165.48</ele>
        <time>2021-04-01T13:57:06Z</time>
      </trkpt>
      <trkpt lat="48.96068" lon="-0.3883">
        <ele>164.52</ele>
        <time>2021-04-01T13:57:29Z</time>
      </trkpt>
      <trkpt lat="48.96061" lon="-0.388">
        <ele>164.52</ele>
        <time>2021-04-01T13:57:52Z</time>
      </trkpt>
      <trkpt lat="48.96044" lon="-0.3877">
        <ele>164.52</ele>
        <time>2021-04-01T13:58:18Z</time>
      </trkpt>
      <trkpt lat="48.96042" lon="-0.38768">
        <ele>165</ele>
        <time>2021-04-01T13:58:20Z</time>
      </trkpt>
    </trkseg>
  </trk>
</gpx>